메인 페이지
METAR-TAF:

METAR-TAF

공항 :

Shreveport Regional Airport

슈리브포트, 루이지애나, 미국

위도: 32-26-49N, 경도: 093-49-27W, 고도: 78m

현재 날씨관측

예보는 15분 전, 14:11시(UTC)에 발표되었습니다.
4kt
온도 6°C
습도 93%
기압 1012 hPa
시정: 6.4km
고도 15000ft 상공 구름 조금
고도 25000ft 상공 구름 조금
박무

METAR: KSHV 141411Z 18004KT 4SM BR FEW150 FEW250 06/05 A2988 RMK AO2 VIS 2 E-S T00560050

시각: 08:26 (14:26 UTC)

예보

예보는 30분 전, 13:56시(UTC)에 발표되었습니다.
예보 대상 시간: 14일 14시부터 15일 12시까지 (UTC)
여러 방향의 바람 3kt
시정: 3.2km
고도 500ft 상공 구름 조금
고도 15000ft 상공 구름 조금
고도 25000ft 상공 구름 보통
낮은 안개
일시적
14일 14시부터 14일 15시까지 (UTC)
시정: 6.4km
낮은 안개
14일 1500시부터 (UTC)
4kt
시정: 10km
고도 15000ft 상공 구름 보통
고도 25000ft 상공 구름 많음
14일 1800시부터 (UTC)
여러 방향의 바람 4kt
시정: 10km
고도 12000ft 상공 구름 많음
고도 25000ft 상공 구름 많음
15일 0000시부터 (UTC)
4kt
시정: 10km
고도 25000ft 상공 구름 조금
15일 0900시부터 (UTC)
동남동3kt
시정: 8.0km
고도 1500ft 상공 구름 많음
박무

TAF: KSHV 141356Z 1414/1512 VRB03KT 2SM MIFG FEW005 FEW150 SCT250 TEMPO 1414/1415 4SM MIFG FM141500 27004KT P6SM SCT150 BKN250 FM141800 VRB04KT P6SM BKN120 BKN250 FM150000 09004KT P6SM FEW250 FM150900 11003KT 5SM BR BKN015

4,000개 이상의 공항 관측 자료 및 예보 (METAR 및 TAF 보고).

지도상에서 검색 가능한 기상관측소가 노란 점과 빨간 점으로 표시되어 있습니다.

기상관측소 명을 보려면 표시 위로 마우스를 이동하세요.

날씨 관측과 예보를 보려면 클릭하세요.

지도 변경 : 확대하려면 엑스 표시가 있는 녹색 버튼, 축소하려면 빼기 표시가 있는 녹색 버튼, 다음 페이지의 지도를 보려면 녹색 화살표를 클릭하세요.


METAR-TAF: